Time;durP1;ratioP1;P1;durP2;ratioP2;P2;SDS_P1;SDS_P2;PMS_P1;PMS_P2;Temp;Humidity;BMP_temperature;BMP_pressure;BME280_temperature;BME280_humidity;BME280_pressure;Samples;Min_cycle;Max_cycle;Signal;HPM_P1;HPM_P2
2022/09/05 00:00:19;;;;;;;5.95;5.45;;;;;;;;;;5054574;28;20070;-42
2022/09/05 00:03:10;;;;;;;8.40;5.47;;;;;;;;;;5054560;28;20025;-42
2022/09/05 00:05:57;;;;;;;6.35;5.28;;;;;;;;;;5054821;28;20178;-42
2022/09/05 00:08:44;;;;;;;7.40;5.18;;;;;;;;;;5054516;28;20021;-42
2022/09/05 00:11:19;;;;;;;5.90;5.28;;;;;;;;;;5054411;28;20064;-44
2022/09/05 00:14:04;;;;;;;7.60;5.40;;;;;;;;;;5054618;28;20033;-42
2022/09/05 00:16:37;;;;;;;7.60;5.18;;;;;;;;;;5054348;28;20085;-42
2022/09/05 00:19:36;;;;;;;7.90;5.20;;;;;;;;;;5053714;28;20025;-42
2022/09/05 00:22:37;;;;;;;5.60;4.47;;;;;;;;;;5054298;28;20028;-42
2022/09/05 00:25:40;;;;;;;5.47;4.97;;;;;;;;;;5054071;28;20040;-42
2022/09/05 00:28:15;;;;;;;5.80;4.97;;;;;;;;;;5054029;28;20067;-42
2022/09/05 00:31:03;;;;;;;4.90;4.50;;;;;;;;;;5053947;28;20025;-42
2022/09/05 00:33:58;;;;;;;5.03;4.35;;;;;;;;;;5050863;28;20079;-42
2022/09/05 00:36:53;;;;;;;6.03;4.68;;;;;;;;;;5054151;28;20445;-44
2022/09/05 00:39:25;;;;;;;6.53;5.07;;;;;;;;;;5053802;28;20033;-42
2022/09/05 00:41:54;;;;;;;4.50;4.13;;;;;;;;;;5054106;28;20021;-42
2022/09/05 00:44:23;;;;;;;5.22;4.72;;;;;;;;;;5053588;28;20071;-42
2022/09/05 00:47:07;;;;;;;5.75;4.72;;;;;;;;;;5053671;28;20017;-42
2022/09/05 00:49:39;;;;;;;4.70;4.30;;;;;;;;;;5053741;28;20491;-42
2022/09/05 00:52:07;;;;;;;5.45;4.82;;;;;;;;;;5053569;28;20036;-42
2022/09/05 00:54:51;;;;;;;6.32;4.90;;;;;;;;;;5053490;28;20098;-42
2022/09/05 00:57:17;;;;;;;5.40;4.90;;;;;;;;;;5053797;28;20029;-42
2022/09/05 01:00:09;;;;;;;5.00;4.60;;;;;;;;;;5053754;28;20024;-43
2022/09/05 01:02:56;;;;;;;5.43;4.60;;;;;;;;;;5053365;28;20059;-42
2022/09/05 01:05:30;;;;;;;5.30;4.80;;;;;;;;;;5053277;28;20068;-42
2022/09/05 01:08:20;;;;;;;6.03;5.10;;;;;;;;;;5053266;28;20057;-42
2022/09/05 01:11:23;;;;;;;6.07;4.88;;;;;;;;;;5053495;28;20044;-42
2022/09/05 01:13:54;;;;;;;5.55;5.00;;;;;;;;;;5053389;28;20025;-42
2022/09/05 01:16:35;;;;;;;5.53;4.60;;;;;;;;;;5053482;28;20478;-42
2022/09/05 01:19:18;;;;;;;6.07;5.47;;;;;;;;;;5053347;28;20412;-42
2022/09/05 01:22:03;;;;;;;6.43;5.78;;;;;;;;;;5053398;28;20418;-42
2022/09/05 01:25:04;;;;;;;6.88;5.40;;;;;;;;;;5053034;28;20036;-42
2022/09/05 01:27:48;;;;;;;5.97;4.75;;;;;;;;;;5051624;28;20067;-42
2022/09/05 01:30:19;;;;;;;5.97;5.25;;;;;;;;;;5052753;28;20024;-42
2022/09/05 01:33:09;;;;;;;5.63;4.97;;;;;;;;;;5052558;28;20538;-42
2022/09/05 01:35:48;;;;;;;15.05;7.28;;;;;;;;;;5052782;28;20029;-42
2022/09/05 01:38:38;;;;;;;8.15;5.15;;;;;;;;;;5052804;28;20488;-42
2022/09/05 01:41:34;;;;;;;6.20;5.60;;;;;;;;;;5052812;28;20566;-42
2022/09/05 01:44:11;;;;;;;7.88;5.40;;;;;;;;;;5052965;28;20063;-43
2022/09/05 01:46:49;;;;;;;5.78;5.28;;;;;;;;;;5052621;28;20542;-41
2022/09/05 01:49:33;;;;;;;9.10;5.15;;;;;;;;;;5052979;28;20029;-42
2022/09/05 01:52:14;;;;;;;7.57;5.72;;;;;;;;;;5052757;28;20053;-42
2022/09/05 01:54:46;;;;;;;7.68;5.20;;;;;;;;;;5052611;28;20045;-42
2022/09/05 01:57:33;;;;;;;7.10;6.18;;;;;;;;;;5052762;28;20482;-42
2022/09/05 02:00:23;;;;;;;12.05;7.72;;;;;;;;;;5052403;28;20059;-44
2022/09/05 02:03:27;;;;;;;6.60;5.88;;;;;;;;;;5041889;28;20029;-42
2022/09/05 02:06:23;;;;;;;7.50;5.50;;;;;;;;;;5052463;28;20419;-43
2022/09/05 02:08:54;;;;;;;5.80;5.28;;;;;;;;;;5052656;28;20103;-42
2022/09/05 02:11:49;;;;;;;7.53;5.60;;;;;;;;;;5052317;28;20469;-42
2022/09/05 02:14:40;;;;;;;7.05;5.82;;;;;;;;;;5052358;28;20021;-42
2022/09/05 02:17:37;;;;;;;9.45;5.38;;;;;;;;;;5052379;28;20032;-42
2022/09/05 02:20:41;;;;;;;7.05;5.43;;;;;;;;;;5052197;28;20102;-42
2022/09/05 02:23:06;;;;;;;7.65;5.30;;;;;;;;;;5051860;28;20040;-42
2022/09/05 02:26:01;;;;;;;7.18;5.55;;;;;;;;;;5052186;28;20473;-42
2022/09/05 02:28:56;;;;;;;8.20;5.68;;;;;;;;;;5043954;28;20033;-42
2022/09/05 02:31:33;;;;;;;12.32;5.80;;;;;;;;;;5043504;28;20041;-42
2022/09/05 02:34:36;;;;;;;8.13;6.10;;;;;;;;;;5052121;28;20477;-42
2022/09/05 02:37:15;;;;;;;9.80;5.45;;;;;;;;;;5048258;28;20041;-42
2022/09/05 02:40:02;;;;;;;6.80;5.65;;;;;;;;;;5052343;28;20395;-43
2022/09/05 02:42:38;;;;;;;10.05;7.55;;;;;;;;;;5053761;28;20079;-42
2022/09/05 02:45:22;;;;;;;6.15;5.55;;;;;;;;;;5056252;28;20025;-42
2022/09/05 02:47:58;;;;;;;6.40;5.78;;;;;;;;;;5056245;28;20029;-43
2022/09/05 02:50:52;;;;;;;7.25;5.60;;;;;;;;;;5055823;28;20524;-42
2022/09/05 02:53:19;;;;;;;7.72;6.32;;;;;;;;;;5055806;28;20064;-42
2022/09/05 02:56:22;;;;;;;8.07;5.80;;;;;;;;;;5055642;28;20059;-43
2022/09/05 02:59:24;;;;;;;7.47;5.82;;;;;;;;;;5055670;28;20021;-44
2022/09/05 03:02:18;;;;;;;8.98;6.05;;;;;;;;;;5055724;28;20025;-42
2022/09/05 03:04:49;;;;;;;8.38;6.78;;;;;;;;;;5055496;28;20068;-43
2022/09/05 03:07:38;;;;;;;6.25;5.65;;;;;;;;;;5055947;28;20025;-42
2022/09/05 03:10:21;;;;;;;6.20;5.60;;;;;;;;;;5055571;28;20033;-42
2022/09/05 03:13:05;;;;;;;6.25;5.43;;;;;;;;;;5055536;28;20021;-43
2022/09/05 03:16:05;;;;;;;6.15;5.28;;;;;;;;;;5055792;28;20044;-42
2022/09/05 03:19:07;;;;;;;6.90;6.20;;;;;;;;;;5053614;28;20435;-42
2022/09/05 03:22:08;;;;;;;7.15;6.30;;;;;;;;;;5055417;28;20036;-43
2022/09/05 03:24:49;;;;;;;8.73;6.90;;;;;;;;;;5055136;28;20043;-43
2022/09/05 03:27:33;;;;;;;8.95;6.22;;;;;;;;;;5055500;28;20055;-43
2022/09/05 03:30:10;;;;;;;6.45;5.78;;;;;;;;;;5055528;28;20439;-42
2022/09/05 03:33:07;;;;;;;8.25;6.10;;;;;;;;;;5055340;28;20033;-42
2022/09/05 03:35:41;;;;;;;7.53;5.30;;;;;;;;;;5054994;28;20029;-42
2022/09/05 03:38:36;;;;;;;7.15;5.28;;;;;;;;;;5055313;28;20025;-42
2022/09/05 03:41:54;;;;;;;5.72;5.22;;;;;;;;;;5054917;28;20070;-44
2022/09/05 03:44:25;;;;;;;7.50;5.28;;;;;;;;;;5045821;28;20570;-42
2022/09/05 03:47:23;;;;;;;5.78;4.78;;;;;;;;;;5054772;28;20040;-42
2022/09/05 03:50:00;;;;;;;7.40;5.28;;;;;;;;;;5055107;28;20033;-45
2022/09/05 03:53:03;;;;;;;10.05;5.80;;;;;;;;;;5055056;28;20055;-43
2022/09/05 03:55:31;;;;;;;7.30;5.88;;;;;;;;;;5053813;28;20493;-43
2022/09/05 03:58:15;;;;;;;7.93;6.25;;;;;;;;;;5054669;28;20078;-42
2022/09/05 04:01:05;;;;;;;6.65;5.95;;;;;;;;;;5054660;28;20028;-42
2022/09/05 04:03:40;;;;;;;7.75;6.43;;;;;;;;;;5054136;28;20044;-42
2022/09/05 04:06:30;;;;;;;6.53;5.85;;;;;;;;;;5054523;28;20021;-42
2022/09/05 04:09:15;;;;;;;8.35;6.65;;;;;;;;;;5054531;28;20393;-42
2022/09/05 04:11:48;;;;;;;6.95;6.25;;;;;;;;;;5054640;28;20033;-42
2022/09/05 04:14:32;;;;;;;8.27;6.65;;;;;;;;;;5054793;28;20033;-42
2022/09/05 04:17:16;;;;;;;8.43;6.70;;;;;;;;;;5054282;28;20056;-42
2022/09/05 04:19:54;;;;;;;7.40;6.20;;;;;;;;;;5053109;28;20186;-43
2022/09/05 04:22:25;;;;;;;7.00;6.40;;;;;;;;;;5054571;28;20053;-42
2022/09/05 04:24:54;;;;;;;9.52;6.32;;;;;;;;;;5054274;28;20025;-43
2022/09/05 04:27:38;;;;;;;11.13;5.80;;;;;;;;;;5054360;28;20029;-43
2022/09/05 04:30:22;;;;;;;7.97;5.70;;;;;;;;;;5054079;28;20064;-45
2022/09/05 04:33:03;;;;;;;7.57;6.15;;;;;;;;;;5054018;28;20021;-42
2022/09/05 04:35:47;;;;;;;7.80;6.30;;;;;;;;;;5054043;28;20039;-43
2022/09/05 04:38:14;;;;;;;8.80;7.13;;;;;;;;;;5054154;28;20036;-45
2022/09/05 04:40:59;;;;;;;14.02;7.07;;;;;;;;;;5052689;28;20033;-43
2022/09/05 04:43:33;;;;;;;8.50;6.72;;;;;;;;;;5053659;28;20086;-44
2022/09/05 04:46:24;;;;;;;9.02;6.63;;;;;;;;;;5053766;28;20506;-45
2022/09/05 04:49:30;;;;;;;11.23;7.35;;;;;;;;;;5053713;28;20083;-46
2022/09/05 04:52:17;;;;;;;12.32;6.85;;;;;;;;;;5041330;28;20492;-44
2022/09/05 04:55:01;;;;;;;17.30;6.20;;;;;;;;;;5053159;28;20497;-44
2022/09/05 04:57:40;;;;;;;9.55;5.82;;;;;;;;;;5053548;28;20041;-42
2022/09/05 05:00:14;;;;;;;8.20;4.70;;;;;;;;;;5053824;28;20028;-43
2022/09/05 05:02:46;;;;;;;10.57;5.35;;;;;;;;;;5053569;28;20025;-46
2022/09/05 05:05:23;;;;;;;5.55;4.90;;;;;;;;;;5053363;28;20508;-45
2022/09/05 05:07:59;;;;;;;6.28;5.30;;;;;;;;;;5053351;28;20025;-46
2022/09/05 05:10:39;;;;;;;10.13;5.40;;;;;;;;;;5053608;28;20048;-45
2022/09/05 05:13:19;;;;;;;5.70;5.20;;;;;;;;;;5053503;28;20033;-44
2022/09/05 05:16:10;;;;;;;10.00;5.03;;;;;;;;;;5053200;28;20530;-43
2022/09/05 05:18:41;;;;;;;5.00;4.60;;;;;;;;;;5053019;28;20037;-44
2022/09/05 05:21:18;;;;;;;12.35;5.25;;;;;;;;;;5053140;28;20021;-47
2022/09/05 05:24:08;;;;;;;8.40;5.50;;;;;;;;;;5053230;28;20087;-46
2022/09/05 05:26:45;;;;;;;6.43;4.68;;;;;;;;;;5053009;28;20473;-44
2022/09/05 05:29:19;;;;;;;6.18;4.65;;;;;;;;;;5053256;28;20037;-43
2022/09/05 05:31:50;;;;;;;8.90;5.32;;;;;;;;;;5052875;28;20032;-43
2022/09/05 05:34:23;;;;;;;7.18;4.88;;;;;;;;;;5052934;28;20085;-46
2022/09/05 05:37:18;;;;;;;7.25;4.90;;;;;;;;;;5053069;28;20074;-48
2022/09/05 05:39:47;;;;;;;4.80;4.32;;;;;;;;;;5043321;28;20032;-47
2022/09/05 05:42:21;;;;;;;5.05;4.00;;;;;;;;;;5052711;28;20517;-45
2022/09/05 05:44:53;;;;;;;4.85;4.40;;;;;;;;;;5052929;28;20037;-44
2022/09/05 05:47:21;;;;;;;5.68;4.40;;;;;;;;;;5052562;28;20033;-47
2022/09/05 05:49:58;;;;;;;5.60;4.25;;;;;;;;;;5052890;28;20033;-43
2022/09/05 05:52:29;;;;;;;4.82;3.95;;;;;;;;;;5052545;28;20097;-46
2022/09/05 05:55:28;;;;;;;5.45;4.60;;;;;;;;;;5052330;28;20041;-42
2022/09/05 05:58:12;;;;;;;5.70;4.28;;;;;;;;;;5052516;28;20044;-45
2022/09/05 06:00:52;;;;;;;5.30;4.43;;;;;;;;;;5052391;28;20067;-47
2022/09/05 06:04:15;;;;;;;6.28;4.03;;;;;;;;;;5052365;28;20358;-44
2022/09/05 06:07:17;;;;;;;5.00;3.97;;;;;;;;;;5029958;28;20474;-48
2022/09/05 06:09:53;;;;;;;4.43;4.00;;;;;;;;;;5030139;28;20029;-45
2022/09/05 06:12:31;;;;;;;4.25;3.85;;;;;;;;;;5047355;28;20070;-51
2022/09/05 06:15:24;;;;;;;5.90;3.80;;;;;;;;;;5052546;28;20029;-48
2022/09/05 06:17:52;;;;;;;4.60;3.95;;;;;;;;;;5052003;28;20100;-46
2022/09/05 06:20:50;;;;;;;3.70;3.40;;;;;;;;;;5052298;28;20024;-52
2022/09/05 06:23:40;;;;;;;4.53;3.55;;;;;;;;;;5032892;28;20048;-51
2022/09/05 06:26:24;;;;;;;6.68;4.10;;;;;;;;;;5052337;28;20497;-48
2022/09/05 06:28:49;;;;;;;5.28;3.45;;;;;;;;;;5052537;28;20028;-48
2022/09/05 06:31:38;;;;;;;5.03;3.05;;;;;;;;;;5052292;28;20028;-49
2022/09/05 06:34:31;;;;;;;4.00;3.28;;;;;;;;;;5052421;28;20125;-45
2022/09/05 06:37:16;;;;;;;5.45;3.70;;;;;;;;;;5052270;28;20384;-47
2022/09/05 06:39:52;;;;;;;4.97;3.53;;;;;;;;;;5052400;28;20378;-44
2022/09/05 06:42:55;;;;;;;3.90;3.28;;;;;;;;;;5052279;28;20082;-47
2022/09/05 06:45:35;;;;;;;3.30;3.00;;;;;;;;;;5050937;28;20400;-46
2022/09/05 06:48:25;;;;;;;3.22;2.92;;;;;;;;;;5052308;28;20033;-45
2022/09/05 06:51:20;;;;;;;3.70;3.40;;;;;;;;;;5052096;28;20419;-47
2022/09/05 06:54:17;;;;;;;4.07;3.08;;;;;;;;;;5051371;28;20040;-45
2022/09/05 06:56:58;;;;;;;7.35;3.10;;;;;;;;;;5051613;28;20041;-47
2022/09/05 06:59:54;;;;;;;3.10;2.35;;;;;;;;;;5052116;28;20037;-45
2022/09/05 07:02:35;;;;;;;2.55;2.35;;;;;;;;;;5052100;28;20055;-49
2022/09/05 07:05:22;;;;;;;3.88;2.28;;;;;;;;;;5051966;28;20025;-45
2022/09/05 07:07:53;;;;;;;3.90;2.38;;;;;;;;;;5051886;28;20032;-44
2022/09/05 07:10:34;;;;;;;3.70;2.20;;;;;;;;;;5051802;28;20063;-48
2022/09/05 07:13:17;;;;;;;2.47;2.10;;;;;;;;;;5052038;28;20078;-47
2022/09/05 07:15:54;;;;;;;10.90;2.40;;;;;;;;;;5051880;28;20120;-45
2022/09/05 07:18:33;;;;;;;2.30;2.10;;;;;;;;;;5051627;28;20013;-44
2022/09/05 07:21:23;;;;;;;4.43;2.60;;;;;;;;;;5051439;28;20090;-49
2022/09/05 07:23:52;;;;;;;4.30;2.70;;;;;;;;;;5051475;28;20114;-44
2022/09/05 07:26:20;;;;;;;3.17;2.88;;;;;;;;;;5051869;28;20385;-49
2022/09/05 07:28:51;;;;;;;5.80;2.60;;;;;;;;;;5052026;28;20021;-44
2022/09/05 07:31:24;;;;;;;6.82;2.70;;;;;;;;;;5055463;28;20099;-43
2022/09/05 07:34:03;;;;;;;3.50;2.50;;;;;;;;;;5054944;28;20154;-45
2022/09/05 07:36:36;;;;;;;2.50;2.30;;;;;;;;;;5054946;28;20025;-47
2022/09/05 07:39:02;;;;;;;4.28;2.63;;;;;;;;;;5054834;28;20036;-46
2022/09/05 07:41:38;;;;;;;3.28;2.30;;;;;;;;;;5054920;28;20099;-48
2022/09/05 07:44:20;;;;;;;3.17;2.60;;;;;;;;;;5054664;28;20025;-47
2022/09/05 07:46:53;;;;;;;2.60;2.40;;;;;;;;;;5053614;28;20047;-45
2022/09/05 07:49:22;;;;;;;2.30;2.10;;;;;;;;;;5054516;28;20025;-42
2022/09/05 07:51:56;;;;;;;2.28;2.10;;;;;;;;;;5054875;28;20388;-47
2022/09/05 07:54:28;;;;;;;4.13;2.13;;;;;;;;;;5054680;28;20097;-49
2022/09/05 07:56:58;;;;;;;4.32;2.03;;;;;;;;;;5054676;28;20029;-50
2022/09/05 07:59:27;;;;;;;3.15;2.35;;;;;;;;;;5054935;28;20155;-48
2022/09/05 08:01:55;;;;;;;2.23;2.03;;;;;;;;;;5054479;28;20025;-45
2022/09/05 08:04:32;;;;;;;2.25;2.05;;;;;;;;;;5053583;28;20118;-42
2022/09/05 08:07:29;;;;;;;2.80;2.60;;;;;;;;;;5053705;28;20120;-43
2022/09/05 08:10:00;;;;;;;5.38;2.30;;;;;;;;;;5052627;28;20044;-46
2022/09/05 08:12:33;;;;;;;2.30;2.10;;;;;;;;;;5054462;28;20032;-47
2022/09/05 08:15:01;;;;;;;1.83;1.73;;;;;;;;;;5047500;28;20028;-47
2022/09/05 08:17:27;;;;;;;6.28;2.40;;;;;;;;;;5054470;28;20415;-47
2022/09/05 08:20:11;;;;;;;2.17;1.98;;;;;;;;;;5054507;28;20025;-48
2022/09/05 08:23:05;;;;;;;2.75;2.10;;;;;;;;;;5054233;28;20063;-45
2022/09/05 08:25:48;;;;;;;2.67;2.25;;;;;;;;;;5053377;28;20392;-44
2022/09/05 08:28:32;;;;;;;2.65;2.20;;;;;;;;;;5054094;28;20021;-54
2022/09/05 08:31:06;;;;;;;2.33;2.13;;;;;;;;;;5054050;28;20029;-51
2022/09/05 08:33:34;;;;;;;2.53;2.33;;;;;;;;;;5053378;28;20505;-48
2022/09/05 08:36:09;;;;;;;4.90;2.22;;;;;;;;;;5053739;28;20055;-45
2022/09/05 08:38:38;;;;;;;5.65;2.08;;;;;;;;;;5053719;28;20039;-51
2022/09/05 08:41:41;;;;;;;2.70;2.20;;;;;;;;;;5053299;28;20025;-50
2022/09/05 08:44:48;;;;;;;4.97;2.10;;;;;;;;;;5053880;28;20033;-50
2022/09/05 08:47:43;;;;;;;1.85;1.75;;;;;;;;;;5050375;28;20037;-52
2022/09/05 08:50:42;;;;;;;2.28;2.10;;;;;;;;;;5053579;28;20060;-47
2022/09/05 08:53:26;;;;;;;2.25;1.90;;;;;;;;;;5053662;28;20025;-49
2022/09/05 08:56:09;;;;;;;2.80;2.13;;;;;;;;;;5053351;28;20064;-46
2022/09/05 08:59:08;;;;;;;2.60;2.13;;;;;;;;;;5053892;28;20040;-46
2022/09/05 09:01:43;;;;;;;2.47;2.28;;;;;;;;;;5053474;28;20543;-49
2022/09/05 09:04:08;;;;;;;3.05;2.15;;;;;;;;;;5053211;28;20170;-46
2022/09/05 09:06:52;;;;;;;5.78;1.65;;;;;;;;;;5053581;28;20120;-48
2022/09/05 09:09:42;;;;;;;2.67;2.00;;;;;;;;;;5053104;28;20021;-46
2022/09/05 09:12:07;;;;;;;5.70;2.15;;;;;;;;;;5053272;28;20028;-43
2022/09/05 09:14:42;;;;;;;3.95;2.13;;;;;;;;;;5053078;28;20027;-43
2022/09/05 09:17:44;;;;;;;5.25;2.00;;;;;;;;;;5052072;28;20122;-44
2022/09/05 09:20:36;;;;;;;6.78;2.00;;;;;;;;;;5051811;28;20040;-47
2022/09/05 09:23:15;;;;;;;4.47;2.17;;;;;;;;;;5050589;28;20468;-47
2022/09/05 09:25:52;;;;;;;2.03;1.90;;;;;;;;;;5053221;28;20024;-44
2022/09/05 09:28:41;;;;;;;3.40;1.80;;;;;;;;;;5053044;28;20037;-52
2022/09/05 09:31:35;;;;;;;2.63;1.88;;;;;;;;;;5051989;28;20371;-46
2022/09/05 09:34:24;;;;;;;3.47;2.13;;;;;;;;;;5053086;28;20098;-46
2022/09/05 09:37:21;;;;;;;5.18;2.22;;;;;;;;;;5052781;28;20025;-46
2022/09/05 09:40:25;;;;;;;3.60;2.05;;;;;;;;;;5052462;28;20032;-47
2022/09/05 09:43:00;;;;;;;4.30;2.38;;;;;;;;;;5052498;28;20037;-51
2022/09/05 09:45:58;;;;;;;2.47;2.25;;;;;;;;;;5052519;28;20025;-53
2022/09/05 09:48:26;;;;;;;7.38;2.17;;;;;;;;;;5052628;28;20032;-48
2022/09/05 09:51:32;;;;;;;3.42;1.90;;;;;;;;;;5052894;28;20033;-47
2022/09/05 09:54:16;;;;;;;3.53;1.95;;;;;;;;;;5052260;28;20017;-43
2022/09/05 09:57:05;;;;;;;7.53;1.90;;;;;;;;;;5052317;28;20049;-44
2022/09/05 10:00:02;;;;;;;9.75;2.85;;;;;;;;;;5052769;28;20028;-48
2022/09/05 10:02:28;;;;;;;4.10;2.17;;;;;;;;;;5052721;28;20482;-44
2022/09/05 10:05:32;;;;;;;52.13;19.05;;;;;;;;;;5051929;28;20052;-47
2022/09/05 10:08:21;;;;;;;2.65;2.42;;;;;;;;;;5050803;28;20040;-47
2022/09/05 10:11:14;;;;;;;5.78;2.42;;;;;;;;;;5051369;28;20432;-47
2022/09/05 10:13:52;;;;;;;3.65;1.70;;;;;;;;;;5052559;28;20025;-48
2022/09/05 10:16:36;;;;;;;2.25;2.00;;;;;;;;;;5052542;28;20033;-45
2022/09/05 10:19:02;;;;;;;2.40;2.20;;;;;;;;;;5052562;28;20036;-47
2022/09/05 10:21:33;;;;;;;2.45;1.88;;;;;;;;;;5052422;28;20033;-44
2022/09/05 10:24:23;;;;;;;2.70;2.30;;;;;;;;;;5052696;28;20021;-47
2022/09/05 10:27:26;;;;;;;2.30;1.95;;;;;;;;;;5052509;28;20358;-47
2022/09/05 10:30:34;;;;;;;2.45;1.95;;;;;;;;;;5029746;28;20035;-46
2022/09/05 10:33:20;;;;;;;2.35;2.00;;;;;;;;;;5032002;28;20033;-43
2022/09/05 10:35:50;;;;;;;1.77;1.67;;;;;;;;;;5051947;28;20064;-46
2022/09/05 10:38:39;;;;;;;6.50;2.60;;;;;;;;;;5052326;28;20468;-44
2022/09/05 10:41:12;;;;;;;2.55;2.10;;;;;;;;;;5052392;28;20108;-44
2022/09/05 10:43:52;;;;;;;2.63;2.33;;;;;;;;;;5051839;28;20028;-44
2022/09/05 10:46:50;;;;;;;2.53;2.15;;;;;;;;;;5052252;28;20028;-45
2022/09/05 10:49:22;;;;;;;3.95;1.70;;;;;;;;;;5051918;28;20036;-46
2022/09/05 10:52:00;;;;;;;2.05;1.88;;;;;;;;;;5051911;28;20036;-44
2022/09/05 10:54:38;;;;;;;2.05;1.85;;;;;;;;;;5051811;28;20033;-45
2022/09/05 10:57:16;;;;;;;2.47;2.28;;;;;;;;;;5052058;28;20028;-47
2022/09/05 11:00:08;;;;;;;2.28;2.08;;;;;;;;;;5052286;28;20017;-44
2022/09/05 11:02:40;;;;;;;2.10;2.00;;;;;;;;;;5052111;28;20025;-43
2022/09/05 11:05:34;;;;;;;2.75;1.85;;;;;;;;;;5055623;28;20043;-44
2022/09/05 11:08:32;;;;;;;2.40;1.88;;;;;;;;;;5050538;28;20069;-44
2022/09/05 11:11:05;;;;;;;3.10;2.10;;;;;;;;;;5051101;28;20389;-46
2022/09/05 11:13:50;;;;;;;2.30;2.10;;;;;;;;;;5055769;28;20025;-46
2022/09/05 11:16:42;;;;;;;4.60;2.38;;;;;;;;;;5056011;28;20032;-48
2022/09/05 11:19:34;;;;;;;6.25;2.15;;;;;;;;;;5055685;28;20444;-44
2022/09/05 11:22:03;;;;;;;6.95;2.70;;;;;;;;;;5055640;28;20411;-46
2022/09/05 11:25:00;;;;;;;5.10;2.28;;;;;;;;;;5055526;28;20032;-45
2022/09/05 11:27:33;;;;;;;2.03;1.88;;;;;;;;;;5052115;28;20033;-46
2022/09/05 11:30:17;;;;;;;2.67;1.90;;;;;;;;;;5055185;28;20546;-44
2022/09/05 11:33:01;;;;;;;4.82;1.92;;;;;;;;;;5055345;28;20036;-44
2022/09/05 11:35:31;;;;;;;3.17;1.80;;;;;;;;;;5055367;28;20112;-45
2022/09/05 11:38:09;;;;;;;2.25;2.05;;;;;;;;;;5055112;28;20086;-47
2022/09/05 11:40:51;;;;;;;2.60;1.80;;;;;;;;;;5055161;28;20044;-46
2022/09/05 11:43:46;;;;;;;3.03;1.75;;;;;;;;;;5055179;28;20051;-44
2022/09/05 11:46:11;;;;;;;4.80;1.70;;;;;;;;;;5035194;28;20037;-44
2022/09/05 11:48:45;;;;;;;5.80;1.80;;;;;;;;;;5054808;28;20025;-44
2022/09/05 11:51:26;;;;;;;2.60;1.70;;;;;;;;;;5054830;28;20450;-43
2022/09/05 11:54:02;;;;;;;4.55;1.88;;;;;;;;;;5054931;28;20432;-45
2022/09/05 11:56:46;;;;;;;7.95;2.50;;;;;;;;;;5053921;28;20053;-45
2022/09/05 11:59:20;;;;;;;7.20;2.00;;;;;;;;;;5053183;28;20035;-43
2022/09/05 12:02:06;;;;;;;3.08;1.83;;;;;;;;;;5052989;28;20032;-47
2022/09/05 12:04:53;;;;;;;4.18;1.90;;;;;;;;;;5053349;28;20029;-43
2022/09/05 12:07:59;;;;;;;1.85;1.70;;;;;;;;;;5053014;28;20060;-44
2022/09/05 12:10:38;;;;;;;5.22;2.20;;;;;;;;;;5041368;28;20040;-44
2022/09/05 12:13:07;;;;;;;3.20;2.10;;;;;;;;;;5052701;28;20108;-46
2022/09/05 12:15:33;;;;;;;2.20;2.00;;;;;;;;;;5051751;28;20036;-52
2022/09/05 12:18:01;;;;;;;2.40;1.90;;;;;;;;;;5052738;28;20258;-45
2022/09/05 12:20:52;;;;;;;2.50;1.80;;;;;;;;;;5052942;28;20040;-47
2022/09/05 12:23:44;;;;;;;1.90;1.80;;;;;;;;;;5052398;28;20087;-48
2022/09/05 12:26:20;;;;;;;4.22;2.03;;;;;;;;;;5052790;28;20033;-46
2022/09/05 12:28:56;;;;;;;2.03;1.83;;;;;;;;;;5052476;28;20167;-45
2022/09/05 12:31:44;;;;;;;1.80;1.70;;;;;;;;;;5052578;28;20075;-47
2022/09/05 12:34:17;;;;;;;3.97;2.00;;;;;;;;;;5051426;28;20040;-48
2022/09/05 12:36:49;;;;;;;4.47;2.00;;;;;;;;;;5051095;28;20040;-46
2022/09/05 12:39:39;;;;;;;4.70;1.95;;;;;;;;;;5050888;28;20473;-50
2022/09/05 12:42:18;;;;;;;;;;;;;;;;;;5051173;28;20036;-46
2022/09/05 12:45:22;;;;;;;3.03;1.83;;;;;;;;;;5050792;28;19940;-49
2022/09/05 12:48:06;;;;;;;3.00;1.80;;;;;;;;;;5039195;28;20087;-48
2022/09/05 12:50:54;;;;;;;2.35;1.73;;;;;;;;;;5051139;28;20050;-44
2022/09/05 12:53:21;;;;;;;4.72;2.05;;;;;;;;;;5050566;28;20029;-45
2022/09/05 12:55:57;;;;;;;2.15;1.88;;;;;;;;;;5050153;28;20053;-42
2022/09/05 12:58:26;;;;;;;2.00;1.60;;;;;;;;;;5050424;28;20098;-45
2022/09/05 13:01:05;;;;;;;4.15;1.73;;;;;;;;;;5050424;28;20033;-48
2022/09/05 13:03:36;;;;;;;2.42;2.03;;;;;;;;;;5049863;28;20029;-44
2022/09/05 13:06:07;;;;;;;6.93;2.00;;;;;;;;;;5047023;28;20025;-47
2022/09/05 13:08:49;;;;;;;2.08;1.98;;;;;;;;;;5049326;28;20028;-43
2022/09/05 13:11:20;;;;;;;5.82;1.70;;;;;;;;;;5046447;28;20025;-43
2022/09/05 13:13:56;;;;;;;2.45;1.92;;;;;;;;;;5048897;28;20115;-43
2022/09/05 13:16:28;;;;;;;2.13;1.92;;;;;;;;;;5046894;28;20098;-45
2022/09/05 13:19:07;;;;;;;4.70;2.13;;;;;;;;;;5047654;28;20412;-44
2022/09/05 13:21:44;;;;;;;2.67;2.00;;;;;;;;;;5049107;28;20400;-45
2022/09/05 13:24:15;;;;;;;3.33;2.20;;;;;;;;;;5049014;28;20036;-48
2022/09/05 13:26:53;;;;;;;2.20;2.03;;;;;;;;;;5046580;28;20036;-46
2022/09/05 13:29:24;;;;;;;5.13;1.88;;;;;;;;;;5046703;28;20100;-45
2022/09/05 13:31:52;;;;;;;7.45;2.80;;;;;;;;;;5048623;28;20542;-44
2022/09/05 13:34:24;;;;;;;6.10;2.30;;;;;;;;;;5046130;28;20770;-46
2022/09/05 13:37:02;;;;;;;4.97;2.10;;;;;;;;;;5048279;28;20029;-46
2022/09/05 13:39:58;;;;;;;4.35;2.40;;;;;;;;;;5048991;28;20048;-43
2022/09/05 13:42:29;;;;;;;2.78;2.20;;;;;;;;;;5047958;28;20036;-44
2022/09/05 13:44:57;;;;;;;8.02;2.20;;;;;;;;;;5048259;28;20095;-43
2022/09/05 13:47:44;;;;;;;4.57;2.30;;;;;;;;;;5045492;28;20032;-43
2022/09/05 13:50:34;;;;;;;6.43;1.75;;;;;;;;;;5048561;28;20060;-46
2022/09/05 13:53:27;;;;;;;1.90;1.70;;;;;;;;;;5047695;28;20120;-44
2022/09/05 13:55:57;;;;;;;5.82;2.00;;;;;;;;;;5047970;28;20065;-43
2022/09/05 13:58:23;;;;;;;2.00;1.80;;;;;;;;;;5049055;28;20048;-43
2022/09/05 14:01:10;;;;;;;3.63;1.88;;;;;;;;;;5049426;28;20784;-45
2022/09/05 14:04:03;;;;;;;2.33;1.77;;;;;;;;;;5045961;28;20033;-46
2022/09/05 14:06:56;;;;;;;2.10;1.90;;;;;;;;;;5049113;28;20056;-44
2022/09/05 14:10:06;;;;;;;2.10;1.77;;;;;;;;;;5048286;28;20116;-44
2022/09/05 14:12:39;;;;;;;1.85;1.70;;;;;;;;;;5048565;28;20067;-43
2022/09/05 14:15:31;;;;;;;2.25;2.00;;;;;;;;;;5028394;28;20069;-42
2022/09/05 14:18:20;;;;;;;7.82;2.15;;;;;;;;;;5027321;28;20516;-45
2022/09/05 14:24:13;;;;;;;2.60;1.90;;;;;;;;;;5028473;28;20048;-51
2022/09/05 14:26:53;;;;;;;3.00;1.63;;;;;;;;;;5026474;28;20048;-47
2022/09/05 14:29:31;;;;;;;3.25;1.90;;;;;;;;;;5028871;28;20160;-46
2022/09/05 14:32:14;;;;;;;3.03;1.80;;;;;;;;;;5039681;28;20098;-48
2022/09/05 14:34:54;;;;;;;5.18;2.00;;;;;;;;;;5048964;28;20033;-42
2022/09/05 14:37:23;;;;;;;2.25;1.90;;;;;;;;;;5048639;28;20513;-48
2022/09/05 14:39:56;;;;;;;4.47;2.10;;;;;;;;;;5052918;28;20036;-45
2022/09/05 14:42:38;;;;;;;2.40;1.67;;;;;;;;;;5053070;28;20048;-44
2022/09/05 14:45:22;;;;;;;4.65;1.77;;;;;;;;;;5053378;28;20033;-47
2022/09/05 14:48:10;;;;;;;5.90;2.00;;;;;;;;;;5054609;28;20040;-45
2022/09/05 14:50:41;;;;;;;6.40;2.08;;;;;;;;;;5054620;28;20025;-46
2022/09/05 14:53:13;;;;;;;3.40;1.60;;;;;;;;;;5054515;28;20072;-42
2022/09/05 14:55:53;;;;;;;2.13;1.90;;;;;;;;;;5054221;28;20037;-47
2022/09/05 14:58:24;;;;;;;3.83;1.65;;;;;;;;;;5053386;28;20022;-45
2022/09/05 15:00:56;;;;;;;3.13;1.90;;;;;;;;;;5053799;28;20048;-43
2022/09/05 15:03:35;;;;;;;24.80;2.80;;;;;;;;;;5054199;28;20031;-44
2022/09/05 15:06:15;;;;;;;2.33;1.75;;;;;;;;;;5053861;28;20036;-45
2022/09/05 15:08:42;;;;;;;5.82;2.03;;;;;;;;;;5054255;28;20033;-47
2022/09/05 15:11:17;;;;;;;2.95;1.90;;;;;;;;;;5053890;28;20044;-51
2022/09/05 15:14:07;;;;;;;2.65;1.60;;;;;;;;;;5053975;28;20116;-48
2022/09/05 15:16:39;;;;;;;3.33;1.73;;;;;;;;;;5053325;28;20032;-45
2022/09/05 15:19:08;;;;;;;2.88;1.80;;;;;;;;;;5052670;28;20040;-40
2022/09/05 15:21:37;;;;;;;1.95;1.60;;;;;;;;;;5052716;28;20414;-47
2022/09/05 15:24:29;;;;;;;2.13;1.70;;;;;;;;;;5052600;28;20449;-47
2022/09/05 15:26:58;;;;;;;2.20;2.00;;;;;;;;;;5051757;28;20082;-41
2022/09/05 15:29:29;;;;;;;1.80;1.70;;;;;;;;;;5051396;28;20024;-48
2022/09/05 15:32:20;;;;;;;5.75;2.30;;;;;;;;;;5053065;28;20037;-43
2022/09/05 15:34:45;;;;;;;5.55;2.17;;;;;;;;;;5053840;28;20039;-46
2022/09/05 15:37:35;;;;;;;5.95;2.10;;;;;;;;;;5051955;28;20688;-44
2022/09/05 15:40:11;;;;;;;4.13;1.85;;;;;;;;;;5053440;28;20033;-46
2022/09/05 15:42:41;;;;;;;3.20;2.00;;;;;;;;;;5050006;28;20366;-45
2022/09/05 15:45:10;;;;;;;;;;;;;;;;;;5053121;28;20033;-44
2022/09/05 15:47:38;;;;;;;4.30;2.20;;;;;;;;;;5052630;28;19954;-46
2022/09/05 15:50:10;;;;;;;4.82;2.20;;;;;;;;;;5051142;28;20024;-45
2022/09/05 15:52:48;;;;;;;3.83;2.00;;;;;;;;;;5052583;28;20031;-45
2022/09/05 15:55:22;;;;;;;7.35;2.30;;;;;;;;;;5052367;28;20052;-43
2022/09/05 15:58:01;;;;;;;3.78;1.98;;;;;;;;;;5052256;28;20083;-46
2022/09/05 16:00:32;;;;;;;2.35;2.15;;;;;;;;;;5052119;28;20033;-44
2022/09/05 16:03:00;;;;;;;4.07;2.75;;;;;;;;;;5052435;28;20060;-44
2022/09/05 16:05:27;;;;;;;2.67;2.00;;;;;;;;;;5052134;28;20044;-42
2022/09/05 16:08:03;;;;;;;2.13;1.92;;;;;;;;;;5052350;28;20017;-44
2022/09/05 16:10:31;;;;;;;3.13;1.98;;;;;;;;;;5052172;28;20035;-44
2022/09/05 16:13:05;;;;;;;3.47;2.20;;;;;;;;;;5052251;28;20024;-43